Terminal Aerodrome Forecast
Issued by NWS

Home | Current Version | Previous Version | Text Only | Print | Product List | Glossary On
Versions: 1 2 3 4 5 6 7 8 9 10 11 12 13 14 15 16 17 18 19
000
FTUS46 KPQR 201141
TAFONP
TAF
KONP 201141Z 2012/2112 VRB03KT P6SM FEW250
     FM201700 35012G18KT P6SM SKC
     FM202000 35015G25KT P6SM SKC
     FM210600 35004KT P6SM SKC=

USA.gov is the U.S. government's official web portal to all federal, state and local government web resources and services.